Time;durP1;ratioP1;P1;durP2;ratioP2;P2;SDS_P1;SDS_P2;PMS_P1;PMS_P2;Temp;Humidity;BMP_temperature;BMP_pressure;BME280_temperature;BME280_humidity;BME280_pressure;Samples;Min_cycle;Max_cycle;Signal;HPM_P1;HPM_P2
2024/01/26 00:00:46;;;;;;;19.88;7.68;;;;;;;9.51;100.00;102305.38;6079620;19;20011;-71
2024/01/26 00:02:51;;;;;;;15.52;6.75;;;;;;;9.48;100.00;102299.25;6088423;19;20440;-70
2024/01/26 00:04:56;;;;;;;15.07;7.40;;;;;;;9.52;100.00;102296.59;6090437;19;20023;-69
2024/01/26 00:06:59;;;;;;;17.88;7.57;;;;;;;9.53;100.00;102287.84;6085402;19;20455;-71
2024/01/26 00:09:13;;;;;;;;;;;;;;;9.51;100.00;102279.13;6089758;19;20015;-69
2024/01/26 00:11:19;;;;;;;19.73;7.88;;;;;;;9.50;100.00;102279.13;6089465;19;20317;-70
2024/01/26 00:13:22;;;;;;;16.98;8.18;;;;;;;9.49;100.00;102270.41;6087965;19;20014;-70
2024/01/26 00:15:28;;;;;;;17.65;8.48;;;;;;;9.48;100.00;102278.28;6088398;19;20011;-70
2024/01/26 00:17:33;;;;;;;19.27;9.27;;;;;;;9.47;100.00;102282.66;6091912;19;20015;-71
2024/01/26 00:19:35;;;;;;;19.27;8.45;;;;;;;9.47;100.00;102279.16;6089646;19;19999;-71
2024/01/26 00:21:40;;;;;;;17.48;7.97;;;;;;;9.49;100.00;102277.41;6087453;19;20007;-71
2024/01/26 00:23:46;;;;;;;18.02;8.25;;;;;;;9.51;100.00;102284.38;6088854;19;20002;-70
2024/01/26 00:25:53;;;;;;;15.68;7.43;;;;;;;9.49;100.00;102280.03;6084488;19;20010;-71
2024/01/26 00:28:00;;;;;;;22.02;9.48;;;;;;;9.51;100.00;102279.13;6087917;19;20034;-70
2024/01/26 00:30:04;;;;;;;16.27;7.32;;;;;;;9.54;100.00;102273.81;6085647;19;20481;-70
2024/01/26 00:32:12;;;;;;;14.73;6.57;;;;;;;9.55;100.00;102256.31;6089552;19;20031;-72
2024/01/26 00:34:17;;;;;;;17.70;7.47;;;;;;;9.49;100.00;102262.53;6087971;19;20297;-72
2024/01/26 00:36:22;;;;;;;15.05;6.97;;;;;;;9.49;100.00;102265.16;6084178;19;20177;-70
2024/01/26 00:38:30;;;;;;;15.95;6.90;;;;;;;9.46;100.00;102273.06;6087280;19;20041;-70
2024/01/26 00:40:35;;;;;;;13.45;6.78;;;;;;;9.52;100.00;102267.72;6089497;19;20475;-71
2024/01/26 00:42:42;;;;;;;15.70;8.32;;;;;;;9.55;100.00;102262.44;6086167;19;20018;-70
2024/01/26 00:44:44;;;;;;;17.67;7.18;;;;;;;9.53;100.00;102272.09;6086044;19;20130;-70
2024/01/26 00:46:49;;;;;;;18.20;8.05;;;;;;;9.56;100.00;102263.31;6088058;19;20011;-70
2024/01/26 00:48:54;;;;;;;16.95;7.20;;;;;;;9.56;100.00;102251.06;6086869;19;20010;-70
2024/01/26 00:51:00;;;;;;;18.98;7.88;;;;;;;9.56;100.00;102258.94;6084390;19;20081;-70
2024/01/26 00:53:06;;;;;;;14.02;7.03;;;;;;;9.61;100.00;102254.50;6082558;19;20014;-70
2024/01/26 00:55:08;;;;;;;19.10;7.05;;;;;;;9.66;100.00;102250.06;6084689;19;20495;-70
2024/01/26 00:57:13;;;;;;;11.88;5.93;;;;;;;9.66;100.00;102257.94;6088107;19;20034;-70
2024/01/26 00:59:18;;;;;;;15.00;6.57;;;;;;;9.70;100.00;102247.38;6081877;19;20002;-69
2024/01/26 01:01:26;;;;;;;13.45;6.15;;;;;;;9.71;100.00;102241.22;6085541;19;20005;-70
2024/01/26 01:03:31;;;;;;;15.45;6.75;;;;;;;9.76;100.00;102242.03;6086739;19;20010;-71
2024/01/26 01:05:36;;;;;;;13.82;6.85;;;;;;;9.72;100.00;102232.47;6083748;19;20003;-70
2024/01/26 01:07:41;;;;;;;13.30;6.38;;;;;;;9.73;100.00;102227.19;6084817;19;20007;-70
2024/01/26 01:09:46;;;;;;;16.48;6.90;;;;;;;9.71;100.00;102233.34;6086150;19;20066;-70
2024/01/26 01:11:52;;;;;;;13.23;6.03;;;;;;;9.72;100.00;102227.22;6083570;19;20014;-70
2024/01/26 01:13:55;;;;;;;17.75;7.05;;;;;;;9.70;100.00;102215.88;6078896;19;20007;-70
2024/01/26 01:16:03;;;;;;;14.32;6.20;;;;;;;9.62;100.00;102208.97;6081218;19;20013;-72
2024/01/26 01:18:08;;;;;;;12.27;5.40;;;;;;;9.63;100.00;102217.72;6086272;19;20007;-71
2024/01/26 01:20:15;;;;;;;14.25;5.63;;;;;;;9.62;100.00;102216.84;6080266;19;20038;-70
2024/01/26 01:22:20;;;;;;;11.20;5.07;;;;;;;9.66;100.00;102207.16;6082003;19;20010;-70
2024/01/26 01:24:30;;;;;;;10.82;4.72;;;;;;;9.64;100.00;102204.56;6085069;19;20011;-71
2024/01/26 01:26:35;;;;;;;11.15;4.80;;;;;;;9.60;100.00;102205.50;6086498;19;20502;-71
2024/01/26 01:28:40;;;;;;;11.98;5.97;;;;;;;9.66;100.00;102205.44;6087742;19;20370;-70
2024/01/26 01:30:45;;;;;;;12.18;4.72;;;;;;;9.72;100.00;102199.22;6081948;19;20085;-70
2024/01/26 01:32:50;;;;;;;12.02;5.45;;;;;;;9.76;100.00;102200.03;6083673;19;20014;-72
2024/01/26 01:34:57;;;;;;;13.23;5.32;;;;;;;9.66;100.00;102189.69;6088729;19;20007;-72
2024/01/26 01:37:02;;;;;;;10.60;4.80;;;;;;;9.71;100.00;102196.59;6082411;19;20006;-70
2024/01/26 01:39:07;;;;;;;12.05;5.40;;;;;;;9.70;100.00;102208.88;6082696;19;20503;-71
2024/01/26 01:41:12;;;;;;;10.02;5.28;;;;;;;9.72;100.00;102212.34;6086028;19;20006;-69
2024/01/26 01:43:19;;;;;;;14.13;5.75;;;;;;;9.72;100.00;102200.97;6087338;19;20089;-69
2024/01/26 01:45:25;;;;;;;11.93;5.45;;;;;;;9.65;100.00;102206.31;6082473;19;20014;-71
2024/01/26 01:47:28;;;;;;;12.88;5.82;;;;;;;9.69;100.00;102199.28;6084832;19;20006;-69
2024/01/26 01:49:36;;;;;;;11.38;5.20;;;;;;;9.64;100.00;102196.72;6088408;19;20011;-70
2024/01/26 01:51:46;;;;;;;13.15;5.47;;;;;;;9.64;100.00;102193.22;6083746;19;20003;-74
2024/01/26 01:53:51;;;;;;;12.15;5.80;;;;;;;9.62;100.00;102187.97;6079768;19;20374;-72
2024/01/26 01:55:58;;;;;;;11.40;5.38;;;;;;;9.59;100.00;102182.78;6081457;19;20047;-70
2024/01/26 01:58:03;;;;;;;14.32;6.35;;;;;;;9.58;100.00;102173.16;6085933;19;20027;-71
2024/01/26 02:00:15;;;;;;;14.02;6.07;;;;;;;9.55;100.00;102165.34;6083104;19;20011;-74
2024/01/26 02:02:23;;;;;;;12.25;5.75;;;;;;;9.61;100.00;102154.75;6081587;19;20038;-70
2024/01/26 02:04:32;;;;;;;11.93;6.70;;;;;;;9.56;100.00;102151.34;6086987;19;20016;-68
2024/01/26 02:06:39;;;;;;;13.77;6.13;;;;;;;9.58;100.00;102153.91;6084063;19;20762;-73
2024/01/26 02:08:45;;;;;;;16.00;6.40;;;;;;;9.56;100.00;102147.84;6080151;19;20360;-69
2024/01/26 02:10:49;;;;;;;12.95;6.30;;;;;;;9.57;100.00;102142.56;6085380;19;20029;-69
2024/01/26 02:12:55;;;;;;;17.42;6.70;;;;;;;9.57;100.00;102142.56;6083549;19;20536;-70
2024/01/26 02:14:58;;;;;;;11.85;5.53;;;;;;;9.56;100.00;102143.47;6083960;19;20105;-70
2024/01/26 02:17:04;;;;;;;12.88;6.43;;;;;;;9.56;100.00;102130.34;6083699;19;20353;-70
2024/01/26 02:19:14;;;;;;;17.85;6.50;;;;;;;9.58;100.00;102132.94;6083864;19;20032;-70
2024/01/26 02:21:20;;;;;;;17.25;7.43;;;;;;;9.56;100.00;102125.09;6084909;19;20034;-71
2024/01/26 02:23:31;;;;;;;13.65;6.72;;;;;;;9.60;100.00;102121.50;6080632;19;20006;-71
2024/01/26 02:25:36;;;;;;;14.15;6.32;;;;;;;9.62;100.00;102114.50;6084800;19;20171;-72
2024/01/26 02:27:39;;;;;;;17.90;6.45;;;;;;;9.59;100.00;102111.06;6086014;19;20005;-72
2024/01/26 02:29:44;;;;;;;14.35;7.13;;;;;;;9.60;100.00;102100.53;6083152;19;20066;-72
2024/01/26 02:31:49;;;;;;;17.88;7.28;;;;;;;9.61;100.00;102111.88;6080058;19;20034;-72
2024/01/26 02:33:52;;;;;;;14.70;6.85;;;;;;;9.62;100.00;102125.00;6086213;19;20035;-70
2024/01/26 02:35:57;;;;;;;18.27;7.68;;;;;;;9.62;100.00;102119.75;6085462;19;20007;-71
2024/01/26 02:38:00;;;;;;;18.75;8.00;;;;;;;9.74;100.00;102128.31;6075081;19;20013;-70
2024/01/26 02:40:09;;;;;;;16.42;7.15;;;;;;;9.80;100.00;102122.97;6085407;19;20011;-68
2024/01/26 02:42:14;;;;;;;20.23;7.75;;;;;;;9.81;100.00;102111.56;6084840;19;20023;-70
2024/01/26 02:44:19;;;;;;;16.50;6.97;;;;;;;9.85;100.00;102102.75;6083157;19;20415;-71
2024/01/26 02:46:22;;;;;;;19.70;7.43;;;;;;;9.86;100.00;102093.97;6079445;19;20427;-69
2024/01/26 02:48:27;;;;;;;14.68;7.75;;;;;;;9.86;100.00;102084.34;6083542;19;20027;-71
2024/01/26 02:50:30;;;;;;;14.23;7.07;;;;;;;9.89;100.00;102083.41;6085979;19;20007;-73
2024/01/26 02:52:35;;;;;;;19.75;7.70;;;;;;;9.89;100.00;102086.03;6078492;19;19999;-71
2024/01/26 02:54:40;;;;;;;14.18;6.97;;;;;;;9.92;100.00;102083.34;6081054;19;20089;-71
2024/01/26 02:56:48;;;;;;;15.38;7.40;;;;;;;9.92;100.00;102083.34;6086650;19;20010;-70
2024/01/26 02:58:55;;;;;;;15.07;7.38;;;;;;;9.94;100.00;102085.97;6081186;19;20424;-71
2024/01/26 03:01:00;;;;;;;16.73;7.93;;;;;;;9.98;100.00;102075.38;6081541;19;20491;-69
2024/01/26 03:03:06;;;;;;;13.88;7.28;;;;;;;9.95;100.00;102074.56;6084054;19;20536;-69
2024/01/26 03:05:11;;;;;;;17.45;7.40;;;;;;;9.97;100.00;102065.75;6083288;19;20447;-69
2024/01/26 03:07:13;;;;;;;16.45;7.32;;;;;;;9.93;100.00;102052.75;6079305;19;20306;-69
2024/01/26 03:09:18;;;;;;;14.63;7.53;;;;;;;9.96;100.00;102050.06;6082903;19;20014;-69
2024/01/26 03:11:25;;;;;;;17.83;7.75;;;;;;;10.00;100.00;102041.19;6082176;19;20445;-69
2024/01/26 03:13:32;;;;;;;28.60;8.45;;;;;;;10.00;100.00;102034.19;6081918;19;20010;-71
2024/01/26 03:15:35;;;;;;;16.05;9.13;;;;;;;10.00;100.00;102055.19;6081601;19;20371;-70
2024/01/26 03:17:40;;;;;;;15.80;7.80;;;;;;;10.05;100.00;102057.75;6082764;19;20017;-69
2024/01/26 03:19:45;;;;;;;17.65;8.68;;;;;;;10.05;100.00;102065.63;6081426;19;20011;-70
2024/01/26 03:21:50;;;;;;;20.63;9.32;;;;;;;10.03;100.00;102057.78;6079758;19;20381;-69
2024/01/26 03:23:53;;;;;;;23.38;9.63;;;;;;;10.00;100.00;102052.56;6084289;19;20006;-69
2024/01/26 03:25:59;;;;;;;20.23;9.93;;;;;;;10.00;100.00;102042.06;6081821;19;20503;-70
2024/01/26 03:28:04;;;;;;;18.05;9.80;;;;;;;9.97;100.00;102031.63;6076179;19;20023;-71
2024/01/26 03:30:10;;;;;;;18.73;10.23;;;;;;;9.95;100.00;102030.78;6084228;19;20499;-71
2024/01/26 03:32:15;;;;;;;27.35;10.65;;;;;;;9.98;100.00;102037.72;6081380;19;20010;-69
2024/01/26 03:34:20;;;;;;;20.42;10.65;;;;;;;9.96;100.00;102026.41;6083691;19;20011;-69
2024/01/26 03:36:31;;;;;;;21.23;10.02;;;;;;;9.98;100.00;102025.50;6079242;19;20498;-69
2024/01/26 03:38:33;;;;;;;21.02;10.07;;;;;;;10.02;100.00;102039.41;6084566;19;20326;-69
2024/01/26 03:40:38;;;;;;;23.63;12.20;;;;;;;9.93;100.00;102029.97;6082642;19;20086;-69
2024/01/26 03:42:43;;;;;;;19.38;9.93;;;;;;;9.98;100.00;102041.25;6083047;19;20002;-69
2024/01/26 03:44:45;;;;;;;29.13;10.20;;;;;;;9.99;100.00;102027.22;6079003;19;20308;-69
2024/01/26 03:46:55;;;;;;;19.17;9.13;;;;;;;9.99;100.00;102028.97;6084109;19;20093;-70
2024/01/26 03:49:03;;;;;;;19.35;9.98;;;;;;;10.01;100.00;102016.69;6082768;19;20046;-71
2024/01/26 03:51:06;;;;;;;18.75;10.40;;;;;;;9.97;100.00;102005.38;6079721;19;20808;-69
2024/01/26 03:53:11;;;;;;;24.92;11.80;;;;;;;9.98;100.00;101996.59;6076340;19;20381;-69
2024/01/26 03:55:16;;;;;;;20.55;10.90;;;;;;;10.01;100.00;102004.41;6083078;19;20327;-73
2024/01/26 03:57:21;;;;;;;21.67;11.15;;;;;;;9.96;100.00;102010.66;6082016;19;20002;-71
2024/01/26 03:59:26;;;;;;;23.98;11.35;;;;;;;10.00;100.00;101997.41;6079808;19;20078;-73
2024/01/26 04:01:31;;;;;;;21.42;11.02;;;;;;;10.01;100.00;101985.19;6084564;19;20975;-72
2024/01/26 04:03:39;;;;;;;19.00;10.13;;;;;;;10.03;100.00;101976.38;6080218;19;20011;-69
2024/01/26 04:05:41;;;;;;;24.98;10.57;;;;;;;10.04;100.00;101971.97;6079598;19;19998;-69
2024/01/26 04:07:46;;;;;;;27.35;11.48;;;;;;;10.02;100.00;101976.41;6080341;19;20002;-71
2024/01/26 04:09:51;;;;;;;20.48;10.95;;;;;;;10.03;100.00;101971.13;6084214;19;20478;-72
2024/01/26 04:11:56;;;;;;;20.83;11.20;;;;;;;10.08;100.00;101965.75;6080771;19;20438;-69
2024/01/26 04:14:01;;;;;;;21.85;10.60;;;;;;;10.01;100.00;101951.91;6079173;19;20013;-69
2024/01/26 04:16:06;;;;;;;23.70;12.00;;;;;;;10.02;100.00;101953.63;6079132;19;20035;-70
2024/01/26 04:18:11;;;;;;;21.58;10.13;;;;;;;10.05;100.00;101944.81;6082030;19;20021;-70
2024/01/26 04:20:19;;;;;;;21.40;10.57;;;;;;;10.08;100.00;101947.38;6081131;19;20063;-71
2024/01/26 04:22:25;;;;;;;22.13;11.63;;;;;;;10.03;100.00;101950.13;6080166;19;20090;-73
2024/01/26 04:24:30;;;;;;;25.73;10.85;;;;;;;10.06;100.00;101952.69;6085510;19;20010;-71
2024/01/26 04:26:36;;;;;;;28.10;13.13;;;;;;;10.02;100.00;101944.88;6082836;19;20038;-73
2024/01/26 04:28:41;;;;;;;23.52;12.18;;;;;;;10.01;100.00;101933.53;6077326;19;20013;-73
2024/01/26 04:30:46;;;;;;;26.77;13.23;;;;;;;10.00;100.00;101928.28;6078861;19;20032;-72
2024/01/26 04:32:51;;;;;;;26.42;11.75;;;;;;;9.99;100.00;101924.81;6083653;19;20010;-72
2024/01/26 04:34:56;;;;;;;33.13;13.25;;;;;;;10.00;100.00;101931.78;6078234;19;20027;-74
2024/01/26 04:37:03;;;;;;;29.42;12.98;;;;;;;10.02;100.00;101942.25;6076209;19;20018;-74
2024/01/26 04:39:11;;;;;;;27.40;12.88;;;;;;;9.98;100.00;101945.81;6077939;19;20020;-74
2024/01/26 04:41:16;;;;;;;26.02;13.27;;;;;;;9.98;100.00;101928.34;6077353;19;20020;-72
2024/01/26 04:43:18;;;;;;;26.02;12.95;;;;;;;9.96;100.00;101932.75;6079086;19;20472;-71
2024/01/26 04:45:23;;;;;;;29.00;13.13;;;;;;;9.93;100.00;101939.84;6081364;19;20031;-70
2024/01/26 04:47:29;;;;;;;25.15;13.05;;;;;;;9.94;100.00;101936.31;6086308;19;20010;-71
2024/01/26 04:49:31;;;;;;;20.48;12.65;;;;;;;10.00;100.00;101918.63;6085129;19;20114;-73
2024/01/26 04:51:39;;;;;;;27.70;13.82;;;;;;;9.94;100.00;101920.53;6086990;19;20345;-72
2024/01/26 04:53:47;;;;;;;20.90;11.00;;;;;;;9.94;100.00;101923.16;6083626;19;20233;-73
2024/01/26 04:55:53;;;;;;;25.73;12.45;;;;;;;9.96;100.00;101919.63;6089794;19;20043;-72
2024/01/26 04:57:56;;;;;;;26.08;12.57;;;;;;;9.96;100.00;101908.25;6083180;19;20480;-72
2024/01/26 05:00:01;;;;;;;25.90;12.13;;;;;;;9.96;100.00;101913.50;6087000;19;20350;-71
2024/01/26 05:02:06;;;;;;;24.60;11.55;;;;;;;9.93;100.00;101906.56;6086677;19;20015;-73
2024/01/26 05:04:11;;;;;;;24.73;12.63;;;;;;;9.90;100.00;101904.00;6081294;19;20474;-74
2024/01/26 05:06:16;;;;;;;22.60;12.98;;;;;;;9.91;100.00;101894.34;6084152;19;20471;-71
2024/01/26 05:08:21;;;;;;;26.40;11.40;;;;;;;9.90;100.00;101893.50;6082812;19;20043;-73
2024/01/26 05:10:29;;;;;;;29.20;13.00;;;;;;;9.90;100.00;101883.00;6084716;19;20007;-72
2024/01/26 05:12:34;;;;;;;27.23;11.02;;;;;;;9.87;100.00;101894.44;6081483;19;20665;-72
2024/01/26 05:14:37;;;;;;;25.33;13.07;;;;;;;9.89;100.00;101892.59;6084422;19;20014;-70
2024/01/26 05:16:42;;;;;;;25.25;10.77;;;;;;;9.85;100.00;101884.84;6085343;19;20383;-71
2024/01/26 05:18:46;;;;;;;23.30;12.02;;;;;;;9.89;100.00;101886.50;6084286;19;20027;-72
2024/01/26 05:20:52;;;;;;;26.48;11.70;;;;;;;9.85;100.00;101883.09;6080619;19;20018;-72
2024/01/26 05:22:57;;;;;;;24.02;12.02;;;;;;;9.85;100.00;101879.59;6084832;19;20479;-70
2024/01/26 05:24:59;;;;;;;22.55;10.50;;;;;;;9.89;100.00;101884.72;6087189;19;20026;-71
2024/01/26 05:27:08;;;;;;;20.25;10.05;;;;;;;9.87;100.00;101875.16;6080879;19;20417;-73
2024/01/26 05:29:14;;;;;;;20.35;11.52;;;;;;;9.91;100.00;101884.72;6086238;19;20006;-73
2024/01/26 05:31:19;;;;;;;28.73;13.07;;;;;;;9.87;100.00;101878.66;6086148;19;20035;-72
2024/01/26 05:33:26;;;;;;;24.98;11.57;;;;;;;9.85;100.00;101869.09;6084037;19;20003;-72
2024/01/26 05:35:31;;;;;;;22.33;10.73;;;;;;;9.90;100.00;101875.13;6083318;19;20006;-69
2024/01/26 05:37:37;;;;;;;25.30;12.05;;;;;;;9.91;100.00;101879.47;6084123;19;20474;-73
2024/01/26 05:39:43;;;;;;;23.40;11.77;;;;;;;9.92;100.00;101875.94;6085133;19;20388;-72
2024/01/26 05:41:48;;;;;;;27.52;12.57;;;;;;;9.97;100.00;101883.72;6082109;19;20015;-69
2024/01/26 05:43:56;;;;;;;26.05;11.48;;;;;;;9.96;100.00;101876.75;6081602;19;20006;-69
2024/01/26 05:46:03;;;;;;;23.92;11.82;;;;;;;9.93;100.00;101872.44;6087329;19;20418;-72
2024/01/26 05:48:09;;;;;;;18.60;10.63;;;;;;;9.92;100.00;101870.69;6081836;19;20039;-70
2024/01/26 05:50:12;;;;;;;23.58;11.35;;;;;;;9.90;100.00;101869.88;6082497;19;20018;-69
2024/01/26 05:52:17;;;;;;;19.63;10.55;;;;;;;9.89;100.00;101861.09;6086434;19;20021;-71
2024/01/26 05:54:21;;;;;;;23.30;10.40;;;;;;;9.93;100.00;101851.41;6076516;19;20043;-70
2024/01/26 05:56:27;;;;;;;18.75;9.70;;;;;;;9.96;100.00;101858.38;6079863;19;20007;-73
2024/01/26 05:58:31;;;;;;;18.48;9.27;;;;;;;9.92;100.00;101854.06;6080422;19;20459;-72
2024/01/26 06:00:38;;;;;;;18.00;8.70;;;;;;;9.94;100.00;101865.41;6080179;19;20024;-71
2024/01/26 06:02:41;;;;;;;17.27;9.00;;;;;;;9.90;100.00;101862.00;6083050;19;20019;-71
2024/01/26 06:04:46;;;;;;;20.30;9.45;;;;;;;9.92;100.00;101875.94;6079604;19;20011;-72
2024/01/26 06:06:48;;;;;;;15.73;8.65;;;;;;;9.90;100.00;101854.13;6084995;19;20444;-70
2024/01/26 06:08:53;;;;;;;19.33;9.95;;;;;;;9.90;100.00;101859.38;6085515;19;20017;-70
2024/01/26 06:10:59;;;;;;;20.00;9.75;;;;;;;9.90;100.00;101862.00;6082378;19;20015;-70
2024/01/26 06:13:05;;;;;;;18.98;11.55;;;;;;;9.88;100.00;101861.16;6082984;19;20010;-69
2024/01/26 06:15:11;;;;;;;19.50;10.13;;;;;;;9.95;100.00;101856.63;6088443;19;20018;-69
2024/01/26 06:17:19;;;;;;;21.23;9.50;;;;;;;9.93;100.00;101864.53;6082834;19;20027;-70
2024/01/26 06:19:22;;;;;;;21.65;10.07;;;;;;;9.93;100.00;101842.69;6081773;19;20010;-69
2024/01/26 06:21:29;;;;;;;;;;;;;;;9.96;100.00;101835.59;6082106;19;20028;-69
2024/01/26 06:23:34;;;;;;;20.27;10.57;;;;;;;9.98;100.00;101849.56;6082465;19;19915;-72
2024/01/26 06:25:39;;;;;;;23.48;11.52;;;;;;;10.00;100.00;101845.13;6082326;19;20046;-69
2024/01/26 06:27:44;;;;;;;28.92;11.88;;;;;;;10.07;100.00;101843.22;6078653;19;20446;-69
2024/01/26 06:29:49;;;;;;;25.77;11.80;;;;;;;10.12;100.00;101851.88;6080121;19;20023;-69
2024/01/26 06:31:54;;;;;;;23.73;12.68;;;;;;;10.15;100.00;101845.69;6086632;19;20086;-72
2024/01/26 06:34:02;;;;;;;26.73;12.85;;;;;;;10.22;100.00;101842.03;6081914;19;20047;-69
2024/01/26 06:36:07;;;;;;;20.27;10.10;;;;;;;10.21;100.00;101843.78;6084979;19;20057;-69
2024/01/26 06:38:13;;;;;;;23.55;11.98;;;;;;;10.19;100.00;101852.59;6086895;19;20028;-70
2024/01/26 06:40:18;;;;;;;25.50;12.68;;;;;;;10.16;100.00;101840.38;6083506;19;20482;-70
2024/01/26 06:42:25;;;;;;;27.08;13.52;;;;;;;10.19;100.00;101844.69;6077374;19;20010;-70
2024/01/26 06:44:35;;;;;;;25.38;12.68;;;;;;;10.22;100.00;101858.66;6084152;19;20505;-70
2024/01/26 06:46:40;;;;;;;27.90;11.73;;;;;;;10.19;100.00;101845.59;6084607;19;20031;-69
2024/01/26 06:48:45;;;;;;;23.48;12.00;;;;;;;10.20;100.00;101854.34;6080603;19;20022;-70
2024/01/26 06:50:53;;;;;;;18.38;9.98;;;;;;;10.25;100.00;101849.84;6084560;19;20510;-70
2024/01/26 06:53:01;;;;;;;22.08;11.40;;;;;;;10.26;100.00;101847.16;6079386;19;20553;-70
2024/01/26 06:55:04;;;;;;;20.58;11.32;;;;;;;10.26;100.00;101859.44;6080404;19;20002;-69
2024/01/26 06:57:09;;;;;;;19.88;11.45;;;;;;;10.24;100.00;101856.88;6078911;19;20007;-69
2024/01/26 06:59:15;;;;;;;26.08;11.30;;;;;;;10.29;100.00;101862.03;6079412;19;20007;-68
2024/01/26 07:01:19;;;;;;;22.67;10.55;;;;;;;10.27;100.00;101855.94;6084385;19;20014;-68
2024/01/26 07:03:22;;;;;;;24.90;10.05;;;;;;;10.31;100.00;101860.22;6076459;19;20037;-69
2024/01/26 07:05:28;;;;;;;22.70;11.15;;;;;;;10.30;100.00;101866.41;6082353;19;20011;-69
2024/01/26 07:07:36;;;;;;;21.52;10.85;;;;;;;10.34;100.00;101868.03;6083530;19;20037;-68
2024/01/26 07:09:41;;;;;;;17.42;8.43;;;;;;;10.35;100.00;101876.78;6078181;19;20013;-69
2024/01/26 07:11:46;;;;;;;14.35;8.90;;;;;;;10.32;100.00;101873.34;6079716;19;20020;-69
2024/01/26 07:13:51;;;;;;;17.85;9.48;;;;;;;10.30;100.00;101872.50;6082386;19;20085;-68
2024/01/26 07:15:55;;;;;;;22.08;10.30;;;;;;;10.32;100.00;101878.59;6084239;19;20593;-69
2024/01/26 07:18:00;;;;;;;19.38;10.30;;;;;;;10.36;100.00;101870.63;6076911;19;20608;-69
2024/01/26 07:20:07;;;;;;;16.65;9.60;;;;;;;10.37;100.00;101869.72;6081740;19;20459;-69
2024/01/26 07:22:12;;;;;;;20.27;9.63;;;;;;;10.38;100.00;101848.69;6083749;19;20062;-69
2024/01/26 07:24:20;;;;;;;19.52;9.40;;;;;;;10.44;100.00;101864.28;6081492;19;20039;-69
2024/01/26 07:26:25;;;;;;;16.23;8.18;;;;;;;10.43;100.00;101844.19;6076749;19;20466;-69
2024/01/26 07:28:27;;;;;;;21.67;7.55;;;;;;;10.51;100.00;101863.25;6081277;19;19998;-69
2024/01/26 07:30:32;;;;;;;15.20;7.85;;;;;;;10.51;100.00;101871.13;6081476;19;22723;-69
2024/01/26 07:32:37;;;;;;;13.25;7.07;;;;;;;10.52;100.00;101858.88;6076064;19;20019;-68
2024/01/26 07:34:42;;;;;;;14.88;6.53;;;;;;;10.53;100.00;101868.47;6080721;19;20428;-70
2024/01/26 07:36:45;;;;;;;11.60;5.68;;;;;;;10.52;100.00;101867.59;6082964;19;20006;-70
2024/01/26 07:38:50;;;;;;;15.25;6.68;;;;;;;10.53;100.00;101858.84;6082288;19;20466;-68
2024/01/26 07:40:57;;;;;;;14.13;5.85;;;;;;;10.53;100.00;101879.88;6078594;19;20010;-69
2024/01/26 07:43:00;;;;;;;16.25;5.40;;;;;;;10.51;100.00;101876.41;6082296;19;20006;-69
2024/01/26 07:45:05;;;;;;;11.70;4.93;;;;;;;10.53;100.00;101874.59;6084224;19;20359;-67
2024/01/26 07:47:11;;;;;;;13.77;4.97;;;;;;;10.54;100.00;101878.94;6074636;19;20030;-68
2024/01/26 07:49:15;;;;;;;10.40;4.90;;;;;;;10.55;100.00;101892.94;6080051;19;20475;-68
2024/01/26 07:51:22;;;;;;;11.75;5.00;;;;;;;10.53;100.00;101882.50;6079341;19;20450;-68
2024/01/26 07:53:24;;;;;;;8.40;4.10;;;;;;;10.55;100.00;101883.28;6076958;19;20728;-68
2024/01/26 07:55:30;;;;;;;18.27;5.00;;;;;;;10.52;100.00;101882.50;6077954;19;20051;-69
2024/01/26 07:57:39;;;;;;;13.00;4.57;;;;;;;10.50;100.00;101881.69;6083444;19;20006;-69
2024/01/26 07:59:44;;;;;;;12.95;4.35;;;;;;;10.51;100.00;101880.78;6080852;19;20013;-69
2024/01/26 08:01:49;;;;;;;16.45;4.50;;;;;;;10.51;100.00;101897.41;6077799;19;20007;-69
2024/01/26 08:03:54;;;;;;;11.75;3.60;;;;;;;10.49;100.00;101899.22;6082148;19;20011;-69
2024/01/26 08:05:59;;;;;;;13.50;4.00;;;;;;;10.44;100.00;101895.81;6080575;19;20018;-70
2024/01/26 08:08:04;;;;;;;17.95;4.13;;;;;;;10.44;100.00;101898.47;6082929;19;20011;-70
2024/01/26 08:10:11;;;;;;;9.07;3.53;;;;;;;10.43;100.00;101909.88;6076103;19;20465;-69
2024/01/26 08:12:20;;;;;;;7.55;3.50;;;;;;;10.36;100.00;101924.03;6081905;19;20066;-73
2024/01/26 08:14:48;;;;;;;5.95;3.13;;;;;;;10.29;100.00;101911.94;5984424;19;2004805;-70
2024/01/26 08:16:53;;;;;;;9.15;3.50;;;;;;;10.27;100.00;101929.47;6074983;19;20309;-70
2024/01/26 08:18:59;;;;;;;16.52;4.22;;;;;;;10.23;100.00;101923.41;6080255;19;20017;-70
2024/01/26 08:21:06;;;;;;;9.55;2.78;;;;;;;10.22;100.00;101924.31;6080845;19;20024;-69
2024/01/26 08:23:11;;;;;;;15.48;3.38;;;;;;;10.21;100.00;101930.44;6081773;19;20018;-70
2024/01/26 08:25:17;;;;;;;19.33;3.78;;;;;;;10.18;100.00;101940.16;6082077;19;21656;-69
2024/01/26 08:27:23;;;;;;;18.27;3.20;;;;;;;10.15;100.00;101929.75;6087464;19;20027;-69
2024/01/26 08:29:29;;;;;;;18.63;3.63;;;;;;;10.14;100.00;101944.63;6087227;19;20002;-71
2024/01/26 08:31:37;;;;;;;13.60;4.05;;;;;;;10.13;100.00;101960.41;6085118;19;20419;-70
2024/01/26 08:33:41;;;;;;;19.90;3.65;;;;;;;10.02;100.00;101955.38;6084457;19;20681;-69
2024/01/26 08:35:47;;;;;;;11.38;3.30;;;;;;;9.98;100.00;101962.47;6085456;19;20007;-69
2024/01/26 08:37:50;;;;;;;18.67;3.85;;;;;;;9.90;100.00;101995.91;6085900;19;20360;-70
2024/01/26 08:39:56;;;;;;;11.43;3.95;;;;;;;9.83;100.00;102012.66;6082922;19;20526;-70
2024/01/26 08:41:58;;;;;;;13.75;5.53;;;;;;;9.71;100.00;102020.75;6087302;19;20034;-69
2024/01/26 08:44:03;;;;;;;16.98;3.28;;;;;;;9.57;100.00;102019.22;6085011;19;20491;-70
2024/01/26 08:46:08;;;;;;;9.40;4.32;;;;;;;9.46;100.00;102018.56;6080935;19;20293;-70
2024/01/26 08:48:16;;;;;;;12.13;4.40;;;;;;;9.37;100.00;102040.56;6085915;19;20110;-69
2024/01/26 08:50:21;;;;;;;10.68;2.53;;;;;;;9.38;100.00;102028.31;6087904;19;20010;-70
2024/01/26 08:52:27;;;;;;;12.38;2.90;;;;;;;9.33;100.00;102043.25;6080657;19;20046;-69
2024/01/26 08:54:35;;;;;;;9.18;2.90;;;;;;;9.34;100.00;102052.84;6081163;19;20014;-69
2024/01/26 08:56:43;;;;;;;17.13;3.92;;;;;;;9.30;100.00;102041.56;6082691;19;20015;-69
2024/01/26 08:58:48;;;;;;;14.40;3.38;;;;;;;9.31;100.00;102047.66;6086934;19;20694;-71
2024/01/26 09:00:53;;;;;;;10.60;3.78;;;;;;;9.27;100.00;102044.22;6082644;19;20017;-68
2024/01/26 09:02:58;;;;;;;12.68;2.38;;;;;;;9.27;100.00;102070.47;6089012;19;20558;-70
2024/01/26 09:05:08;;;;;;;8.02;2.63;;;;;;;9.25;100.00;102063.50;6087646;19;20354;-70
2024/01/26 09:07:17;;;;;;;9.38;2.13;;;;;;;9.17;100.00;102050.50;6084138;19;20003;-69
2024/01/26 09:09:22;;;;;;;5.43;1.88;;;;;;;9.02;100.00;102060.31;6080688;19;20020;-70
2024/01/26 09:11:30;;;;;;;7.97;2.22;;;;;;;8.97;100.00;102061.25;6087116;19;20017;-70
2024/01/26 09:13:35;;;;;;;8.88;2.20;;;;;;;9.00;100.00;102064.72;6086229;19;20019;-69
2024/01/26 09:15:40;;;;;;;7.97;2.60;;;;;;;9.05;100.00;102058.53;6079456;19;20372;-71
2024/01/26 09:17:45;;;;;;;22.33;3.85;;;;;;;9.03;100.00;102076.94;6088048;19;20027;-70
2024/01/26 09:19:51;;;;;;;28.88;3.15;;;;;;;9.06;100.00;102071.63;6084411;19;20074;-70
2024/01/26 09:21:59;;;;;;;8.98;2.45;;;;;;;9.06;100.00;102089.09;6084361;19;20029;-69
2024/01/26 09:24:04;;;;;;;13.48;2.42;;;;;;;8.98;100.00;102110.22;6084186;19;20013;-70
2024/01/26 09:26:09;;;;;;;14.57;2.58;;;;;;;8.90;100.00;102125.16;6086723;19;20039;-70
2024/01/26 09:28:14;;;;;;;5.93;1.70;;;;;;;8.81;100.00;102117.41;6084049;19;19999;-69
2024/01/26 09:30:19;;;;;;;3.05;1.48;;;;;;;8.69;100.00;102135.03;6083013;19;20015;-69
2024/01/26 09:32:29;;;;;;;4.50;1.52;;;;;;;8.60;100.00;102170.94;6086858;19;20017;-69